sensor_id;sensor_type;location;lat;lon;timestamp;P1;durP1;ratioP1;P2;durP2;ratioP2
9834;SDS011;69850;50.942;13.748;2023-06-14T00:01:20;7.97;;;6.40;;
9834;SDS011;69850;50.942;13.748;2023-06-14T00:04:42;8.63;;;6.22;;
9834;SDS011;69850;50.942;13.748;2023-06-14T00:08:03;8.27;;;6.20;;
9834;SDS011;69850;50.942;13.748;2023-06-14T00:11:27;8.23;;;6.28;;
9834;SDS011;69850;50.942;13.748;2023-06-14T00:14:48;10.07;;;6.60;;
9834;SDS011;69850;50.942;13.748;2023-06-14T00:18:09;7.70;;;5.78;;
9834;SDS011;69850;50.942;13.748;2023-06-14T00:21:31;7.25;;;5.55;;
9834;SDS011;69850;50.942;13.748;2023-06-14T00:24:52;7.05;;;5.55;;
9834;SDS011;69850;50.942;13.748;2023-06-14T00:28:13;10.00;;;5.90;;
9834;SDS011;69850;50.942;13.748;2023-06-14T00:31:33;7.68;;;5.78;;
9834;SDS011;69850;50.942;13.748;2023-06-14T00:34:54;7.03;;;5.72;;
9834;SDS011;69850;50.942;13.748;2023-06-14T00:38:15;6.65;;;5.50;;
9834;SDS011;69850;50.942;13.748;2023-06-14T00:41:35;6.50;;;5.72;;
9834;SDS011;69850;50.942;13.748;2023-06-14T00:44:56;7.63;;;5.70;;
9834;SDS011;69850;50.942;13.748;2023-06-14T00:48:18;8.55;;;5.95;;
9834;SDS011;69850;50.942;13.748;2023-06-14T00:51:39;8.75;;;5.75;;
9834;SDS011;69850;50.942;13.748;2023-06-14T00:55:00;8.55;;;5.60;;
9834;SDS011;69850;50.942;13.748;2023-06-14T00:58:23;8.57;;;5.68;;
9834;SDS011;69850;50.942;13.748;2023-06-14T01:01:43;7.57;;;5.35;;
9834;SDS011;69850;50.942;13.748;2023-06-14T01:05:05;6.78;;;5.18;;
9834;SDS011;69850;50.942;13.748;2023-06-14T01:08:47;8.45;;;5.40;;
9834;SDS011;69850;50.942;13.748;2023-06-14T01:12:58;7.05;;;5.18;;
9834;SDS011;69850;50.942;13.748;2023-06-14T01:16:05;7.90;;;6.18;;
9834;SDS011;69850;50.942;13.748;2023-06-14T01:19:26;7.55;;;6.10;;
9834;SDS011;69850;50.942;13.748;2023-06-14T01:22:51;7.60;;;5.80;;
9834;SDS011;69850;50.942;13.748;2023-06-14T01:26:13;8.32;;;5.68;;
9834;SDS011;69850;50.942;13.748;2023-06-14T01:29:36;9.15;;;5.70;;
9834;SDS011;69850;50.942;13.748;2023-06-14T01:32:56;7.30;;;5.10;;
9834;SDS011;69850;50.942;13.748;2023-06-14T01:36:18;7.30;;;5.75;;
9834;SDS011;69850;50.942;13.748;2023-06-14T01:39:39;10.00;;;6.45;;
9834;SDS011;69850;50.942;13.748;2023-06-14T01:43:02;6.22;;;5.40;;
9834;SDS011;69850;50.942;13.748;2023-06-14T01:46:23;6.15;;;5.40;;
9834;SDS011;69850;50.942;13.748;2023-06-14T01:49:45;10.70;;;6.35;;
9834;SDS011;69850;50.942;13.748;2023-06-14T01:53:07;8.82;;;5.68;;
9834;SDS011;69850;50.942;13.748;2023-06-14T01:56:30;8.85;;;5.60;;
9834;SDS011;69850;50.942;13.748;2023-06-14T01:59:53;6.57;;;5.63;;
9834;SDS011;69850;50.942;13.748;2023-06-14T02:03:14;8.55;;;5.88;;
9834;SDS011;69850;50.942;13.748;2023-06-14T02:06:35;9.13;;;5.97;;
9834;SDS011;69850;50.942;13.748;2023-06-14T02:09:56;7.43;;;5.55;;
9834;SDS011;69850;50.942;13.748;2023-06-14T02:13:17;10.82;;;6.65;;
9834;SDS011;69850;50.942;13.748;2023-06-14T02:16:37;9.10;;;6.80;;
9834;SDS011;69850;50.942;13.748;2023-06-14T02:19:59;12.25;;;7.50;;
9834;SDS011;69850;50.942;13.748;2023-06-14T02:23:20;11.20;;;7.50;;
9834;SDS011;69850;50.942;13.748;2023-06-14T02:26:41;13.20;;;7.35;;
9834;SDS011;69850;50.942;13.748;2023-06-14T02:30:02;9.32;;;6.75;;
9834;SDS011;69850;50.942;13.748;2023-06-14T02:33:22;11.63;;;6.63;;
9834;SDS011;69850;50.942;13.748;2023-06-14T02:36:43;11.30;;;6.78;;
9834;SDS011;69850;50.942;13.748;2023-06-14T02:40:05;9.23;;;7.13;;
9834;SDS011;69850;50.942;13.748;2023-06-14T02:43:28;8.90;;;7.13;;
9834;SDS011;69850;50.942;13.748;2023-06-14T02:46:49;11.85;;;8.07;;
9834;SDS011;69850;50.942;13.748;2023-06-14T02:50:11;9.65;;;7.70;;
9834;SDS011;69850;50.942;13.748;2023-06-14T02:53:32;10.63;;;7.70;;
9834;SDS011;69850;50.942;13.748;2023-06-14T02:56:53;10.90;;;7.45;;
9834;SDS011;69850;50.942;13.748;2023-06-14T03:00:14;8.98;;;7.43;;
9834;SDS011;69850;50.942;13.748;2023-06-14T03:03:40;11.68;;;7.75;;
9834;SDS011;69850;50.942;13.748;2023-06-14T03:07:00;11.18;;;8.00;;
9834;SDS011;69850;50.942;13.748;2023-06-14T03:10:23;14.80;;;8.55;;
9834;SDS011;69850;50.942;13.748;2023-06-14T03:13:45;11.40;;;8.05;;
9834;SDS011;69850;50.942;13.748;2023-06-14T03:17:07;9.73;;;7.68;;
9834;SDS011;69850;50.942;13.748;2023-06-14T03:20:29;11.40;;;8.00;;
9834;SDS011;69850;50.942;13.748;2023-06-14T03:23:53;8.57;;;7.43;;
9834;SDS011;69850;50.942;13.748;2023-06-14T03:27:14;13.02;;;8.95;;
9834;SDS011;69850;50.942;13.748;2023-06-14T03:30:38;13.80;;;8.55;;
9834;SDS011;69850;50.942;13.748;2023-06-14T03:33:59;11.00;;;7.75;;
9834;SDS011;69850;50.942;13.748;2023-06-14T03:37:21;10.18;;;6.90;;
9834;SDS011;69850;50.942;13.748;2023-06-14T03:40:42;8.05;;;6.00;;
9834;SDS011;69850;50.942;13.748;2023-06-14T03:44:02;7.22;;;4.80;;
9834;SDS011;69850;50.942;13.748;2023-06-14T03:47:24;8.60;;;4.68;;
9834;SDS011;69850;50.942;13.748;2023-06-14T03:50:46;5.72;;;4.10;;
9834;SDS011;69850;50.942;13.748;2023-06-14T03:54:07;6.45;;;4.10;;
9834;SDS011;69850;50.942;13.748;2023-06-14T03:57:30;4.43;;;3.20;;
9834;SDS011;69850;50.942;13.748;2023-06-14T04:00:51;5.75;;;3.78;;
9834;SDS011;69850;50.942;13.748;2023-06-14T04:04:11;7.85;;;3.55;;
9834;SDS011;69850;50.942;13.748;2023-06-14T04:07:32;3.92;;;2.85;;
9834;SDS011;69850;50.942;13.748;2023-06-14T04:11:00;6.28;;;3.33;;
9834;SDS011;69850;50.942;13.748;2023-06-14T04:14:21;3.50;;;3.10;;
9834;SDS011;69850;50.942;13.748;2023-06-14T04:17:41;3.88;;;3.22;;
9834;SDS011;69850;50.942;13.748;2023-06-14T04:21:02;5.68;;;3.45;;
9834;SDS011;69850;50.942;13.748;2023-06-14T04:24:24;5.70;;;3.10;;
9834;SDS011;69850;50.942;13.748;2023-06-14T04:27:53;3.42;;;2.90;;
9834;SDS011;69850;50.942;13.748;2023-06-14T04:31:13;4.13;;;3.53;;
9834;SDS011;69850;50.942;13.748;2023-06-14T04:34:36;5.47;;;2.92;;
9834;SDS011;69850;50.942;13.748;2023-06-14T04:37:58;5.10;;;3.20;;
9834;SDS011;69850;50.942;13.748;2023-06-14T04:41:20;3.83;;;3.10;;
9834;SDS011;69850;50.942;13.748;2023-06-14T04:44:43;4.35;;;3.70;;
9834;SDS011;69850;50.942;13.748;2023-06-14T04:48:05;6.18;;;3.33;;
9834;SDS011;69850;50.942;13.748;2023-06-14T04:51:26;4.75;;;3.42;;
9834;SDS011;69850;50.942;13.748;2023-06-14T04:54:50;6.00;;;3.45;;
9834;SDS011;69850;50.942;13.748;2023-06-14T04:58:13;4.53;;;3.72;;
9834;SDS011;69850;50.942;13.748;2023-06-14T05:01:34;5.15;;;3.60;;
9834;SDS011;69850;50.942;13.748;2023-06-14T05:04:55;4.43;;;3.40;;
9834;SDS011;69850;50.942;13.748;2023-06-14T05:08:17;4.05;;;3.65;;
9834;SDS011;69850;50.942;13.748;2023-06-14T05:11:39;6.07;;;3.90;;
9834;SDS011;69850;50.942;13.748;2023-06-14T05:15:02;4.75;;;4.00;;
9834;SDS011;69850;50.942;13.748;2023-06-14T05:18:24;6.07;;;4.00;;
9834;SDS011;69850;50.942;13.748;2023-06-14T05:21:45;9.57;;;4.10;;
9834;SDS011;69850;50.942;13.748;2023-06-14T05:25:07;6.20;;;3.85;;
9834;SDS011;69850;50.942;13.748;2023-06-14T05:28:28;5.47;;;3.45;;
9834;SDS011;69850;50.942;13.748;2023-06-14T05:31:49;4.65;;;4.18;;
9834;SDS011;69850;50.942;13.748;2023-06-14T05:35:09;4.60;;;4.20;;
9834;SDS011;69850;50.942;13.748;2023-06-14T05:38:30;4.88;;;3.92;;
9834;SDS011;69850;50.942;13.748;2023-06-14T05:41:51;4.43;;;3.83;;
9834;SDS011;69850;50.942;13.748;2023-06-14T05:45:11;4.72;;;3.90;;
9834;SDS011;69850;50.942;13.748;2023-06-14T05:48:32;4.75;;;4.35;;
9834;SDS011;69850;50.942;13.748;2023-06-14T05:51:52;7.40;;;4.28;;
9834;SDS011;69850;50.942;13.748;2023-06-14T05:55:13;6.43;;;3.90;;
9834;SDS011;69850;50.942;13.748;2023-06-14T05:58:36;6.50;;;4.22;;
9834;SDS011;69850;50.942;13.748;2023-06-14T06:01:57;9.55;;;4.50;;
9834;SDS011;69850;50.942;13.748;2023-06-14T06:05:17;6.15;;;4.50;;
9834;SDS011;69850;50.942;13.748;2023-06-14T06:08:38;5.90;;;4.05;;
9834;SDS011;69850;50.942;13.748;2023-06-14T06:11:59;9.70;;;4.20;;
9834;SDS011;69850;50.942;13.748;2023-06-14T06:15:19;6.53;;;4.30;;
9834;SDS011;69850;50.942;13.748;2023-06-14T06:18:40;4.82;;;4.20;;
9834;SDS011;69850;50.942;13.748;2023-06-14T06:22:01;5.50;;;4.20;;
9834;SDS011;69850;50.942;13.748;2023-06-14T06:25:22;6.80;;;4.40;;
9834;SDS011;69850;50.942;13.748;2023-06-14T06:28:46;5.45;;;4.60;;
9834;SDS011;69850;50.942;13.748;2023-06-14T06:32:06;5.03;;;4.30;;
9834;SDS011;69850;50.942;13.748;2023-06-14T06:35:27;5.80;;;4.18;;
9834;SDS011;69850;50.942;13.748;2023-06-14T06:38:49;5.70;;;4.78;;
9834;SDS011;69850;50.942;13.748;2023-06-14T06:42:10;6.03;;;4.63;;
9834;SDS011;69850;50.942;13.748;2023-06-14T06:45:36;5.75;;;4.88;;
9834;SDS011;69850;50.942;13.748;2023-06-14T06:48:56;5.22;;;4.07;;
9834;SDS011;69850;50.942;13.748;2023-06-14T06:52:17;6.72;;;4.28;;
9834;SDS011;69850;50.942;13.748;2023-06-14T06:55:38;7.03;;;4.25;;
9834;SDS011;69850;50.942;13.748;2023-06-14T06:58:58;8.05;;;4.97;;
9834;SDS011;69850;50.942;13.748;2023-06-14T07:02:19;7.35;;;4.53;;
9834;SDS011;69850;50.942;13.748;2023-06-14T07:05:39;6.88;;;5.20;;
9834;SDS011;69850;50.942;13.748;2023-06-14T07:09:00;8.13;;;4.72;;
9834;SDS011;69850;50.942;13.748;2023-06-14T07:12:21;8.63;;;5.50;;
9834;SDS011;69850;50.942;13.748;2023-06-14T07:15:42;9.55;;;4.78;;
9834;SDS011;69850;50.942;13.748;2023-06-14T07:19:03;8.52;;;4.90;;
9834;SDS011;69850;50.942;13.748;2023-06-14T07:22:23;8.10;;;4.53;;
9834;SDS011;69850;50.942;13.748;2023-06-14T07:25:44;7.05;;;4.40;;
9834;SDS011;69850;50.942;13.748;2023-06-14T07:29:05;6.15;;;4.93;;
9834;SDS011;69850;50.942;13.748;2023-06-14T07:32:25;7.18;;;5.00;;
9834;SDS011;69850;50.942;13.748;2023-06-14T07:35:46;8.63;;;5.35;;
9834;SDS011;69850;50.942;13.748;2023-06-14T07:39:08;5.10;;;4.60;;
9834;SDS011;69850;50.942;13.748;2023-06-14T07:42:28;6.80;;;5.20;;
9834;SDS011;69850;50.942;13.748;2023-06-14T07:45:49;8.57;;;5.35;;
9834;SDS011;69850;50.942;13.748;2023-06-14T07:49:09;5.75;;;5.15;;
9834;SDS011;69850;50.942;13.748;2023-06-14T07:52:30;6.35;;;5.03;;
9834;SDS011;69850;50.942;13.748;2023-06-14T07:55:51;5.63;;;4.60;;
9834;SDS011;69850;50.942;13.748;2023-06-14T07:59:12;5.18;;;4.60;;
9834;SDS011;69850;50.942;13.748;2023-06-14T08:02:32;6.88;;;5.05;;
9834;SDS011;69850;50.942;13.748;2023-06-14T08:05:53;6.70;;;5.03;;
9834;SDS011;69850;50.942;13.748;2023-06-14T08:09:13;7.53;;;5.07;;
9834;SDS011;69850;50.942;13.748;2023-06-14T08:12:34;5.45;;;4.43;;
9834;SDS011;69850;50.942;13.748;2023-06-14T08:15:55;8.75;;;4.80;;
9834;SDS011;69850;50.942;13.748;2023-06-14T08:19:17;6.68;;;4.75;;
9834;SDS011;69850;50.942;13.748;2023-06-14T08:22:38;6.55;;;4.35;;
9834;SDS011;69850;50.942;13.748;2023-06-14T08:25:59;5.05;;;4.55;;
9834;SDS011;69850;50.942;13.748;2023-06-14T08:29:21;6.28;;;4.70;;
9834;SDS011;69850;50.942;13.748;2023-06-14T08:32:43;8.88;;;4.72;;
9834;SDS011;69850;50.942;13.748;2023-06-14T08:36:03;7.00;;;4.53;;
9834;SDS011;69850;50.942;13.748;2023-06-14T08:39:24;4.07;;;3.67;;
9834;SDS011;69850;50.942;13.748;2023-06-14T08:42:47;4.25;;;3.60;;
9834;SDS011;69850;50.942;13.748;2023-06-14T08:46:12;4.63;;;3.00;;
9834;SDS011;69850;50.942;13.748;2023-06-14T08:49:36;5.38;;;2.90;;
9834;SDS011;69850;50.942;13.748;2023-06-14T08:52:59;3.03;;;2.72;;
9834;SDS011;69850;50.942;13.748;2023-06-14T08:56:26;3.90;;;2.40;;
9834;SDS011;69850;50.942;13.748;2023-06-14T08:59:48;2.95;;;2.55;;
9834;SDS011;69850;50.942;13.748;2023-06-14T09:03:12;4.43;;;2.90;;
9834;SDS011;69850;50.942;13.748;2023-06-14T09:06:33;4.50;;;2.75;;
9834;SDS011;69850;50.942;13.748;2023-06-14T09:10:07;3.45;;;2.70;;
9834;SDS011;69850;50.942;13.748;2023-06-14T09:13:34;5.30;;;3.25;;
9834;SDS011;69850;50.942;13.748;2023-06-14T09:16:55;4.07;;;2.92;;
9834;SDS011;69850;50.942;13.748;2023-06-14T09:20:15;3.47;;;2.80;;
9834;SDS011;69850;50.942;13.748;2023-06-14T09:23:39;3.60;;;3.30;;
9834;SDS011;69850;50.942;13.748;2023-06-14T09:27:01;4.57;;;3.33;;
9834;SDS011;69850;50.942;13.748;2023-06-14T09:30:21;3.65;;;3.28;;
9834;SDS011;69850;50.942;13.748;2023-06-14T09:33:45;4.45;;;3.25;;
9834;SDS011;69850;50.942;13.748;2023-06-14T09:37:08;4.65;;;3.40;;
9834;SDS011;69850;50.942;13.748;2023-06-14T09:40:28;5.15;;;4.05;;
9834;SDS011;69850;50.942;13.748;2023-06-14T09:43:54;4.72;;;3.75;;
9834;SDS011;69850;50.942;13.748;2023-06-14T09:47:17;4.30;;;3.63;;
9834;SDS011;69850;50.942;13.748;2023-06-14T09:50:39;4.82;;;3.70;;
9834;SDS011;69850;50.942;13.748;2023-06-14T09:54:00;4.47;;;3.63;;
9834;SDS011;69850;50.942;13.748;2023-06-14T09:57:24;4.78;;;3.78;;
9834;SDS011;69850;50.942;13.748;2023-06-14T10:00:46;9.82;;;4.38;;
9834;SDS011;69850;50.942;13.748;2023-06-14T10:04:09;6.13;;;3.60;;
9834;SDS011;69850;50.942;13.748;2023-06-14T10:07:31;6.07;;;3.90;;
9834;SDS011;69850;50.942;13.748;2023-06-14T10:10:55;5.55;;;4.30;;
9834;SDS011;69850;50.942;13.748;2023-06-14T10:14:16;5.38;;;4.10;;
9834;SDS011;69850;50.942;13.748;2023-06-14T10:17:51;6.50;;;4.00;;
9834;SDS011;69850;50.942;13.748;2023-06-14T10:25:34;8.77;;;3.83;;
9834;SDS011;69850;50.942;13.748;2023-06-14T10:29:15;3.90;;;3.53;;
9834;SDS011;69850;50.942;13.748;2023-06-14T10:32:35;5.05;;;3.67;;
9834;SDS011;69850;50.942;13.748;2023-06-14T10:36:29;4.93;;;3.95;;
9834;SDS011;69850;50.942;13.748;2023-06-14T10:39:55;4.38;;;3.95;;
9834;SDS011;69850;50.942;13.748;2023-06-14T10:43:22;4.63;;;3.67;;
9834;SDS011;69850;50.942;13.748;2023-06-14T10:46:47;5.18;;;3.53;;
9834;SDS011;69850;50.942;13.748;2023-06-14T10:50:13;4.95;;;3.30;;
9834;SDS011;69850;50.942;13.748;2023-06-14T10:53:40;3.08;;;2.70;;
9834;SDS011;69850;50.942;13.748;2023-06-14T10:57:02;3.40;;;2.65;;
9834;SDS011;69850;50.942;13.748;2023-06-14T11:00:28;3.40;;;2.80;;
9834;SDS011;69850;50.942;13.748;2023-06-14T11:03:51;3.97;;;2.90;;
9834;SDS011;69850;50.942;13.748;2023-06-14T11:07:58;5.60;;;3.42;;
9834;SDS011;69850;50.942;13.748;2023-06-14T11:10:59;3.90;;;3.50;;
9834;SDS011;69850;50.942;13.748;2023-06-14T11:14:20;5.63;;;3.70;;
9834;SDS011;69850;50.942;13.748;2023-06-14T11:17:53;3.90;;;2.97;;
9834;SDS011;69850;50.942;13.748;2023-06-14T11:21:16;3.03;;;2.72;;
9834;SDS011;69850;50.942;13.748;2023-06-14T11:24:37;3.45;;;2.92;;
9834;SDS011;69850;50.942;13.748;2023-06-14T11:27:58;4.18;;;3.00;;
9834;SDS011;69850;50.942;13.748;2023-06-14T11:31:21;2.92;;;2.63;;
9834;SDS011;69850;50.942;13.748;2023-06-14T11:34:45;5.50;;;3.10;;
9834;SDS011;69850;50.942;13.748;2023-06-14T11:38:06;5.00;;;3.00;;
9834;SDS011;69850;50.942;13.748;2023-06-14T11:41:32;3.33;;;2.97;;
9834;SDS011;69850;50.942;13.748;2023-06-14T11:44:56;3.10;;;2.63;;
9834;SDS011;69850;50.942;13.748;2023-06-14T11:48:16;3.72;;;3.33;;
9834;SDS011;69850;50.942;13.748;2023-06-14T11:51:37;5.95;;;3.90;;
9834;SDS011;69850;50.942;13.748;2023-06-14T11:54:57;5.82;;;3.30;;
9834;SDS011;69850;50.942;13.748;2023-06-14T11:58:18;6.70;;;3.80;;
9834;SDS011;69850;50.942;13.748;2023-06-14T12:01:39;5.65;;;4.20;;
9834;SDS011;69850;50.942;13.748;2023-06-14T12:05:06;6.60;;;4.15;;
9834;SDS011;69850;50.942;13.748;2023-06-14T12:08:33;4.93;;;3.83;;
9834;SDS011;69850;50.942;13.748;2023-06-14T12:12:00;10.32;;;4.20;;
9834;SDS011;69850;50.942;13.748;2023-06-14T12:15:21;5.03;;;3.83;;
9834;SDS011;69850;50.942;13.748;2023-06-14T12:18:42;6.28;;;3.55;;
9834;SDS011;69850;50.942;13.748;2023-06-14T12:22:03;5.57;;;4.00;;
9834;SDS011;69850;50.942;13.748;2023-06-14T12:28:55;6.72;;;3.95;;
9834;SDS011;69850;50.942;13.748;2023-06-14T12:32:16;4.72;;;3.90;;
9834;SDS011;69850;50.942;13.748;2023-06-14T12:35:37;3.65;;;3.35;;
9834;SDS011;69850;50.942;13.748;2023-06-14T12:38:57;4.80;;;4.20;;
9834;SDS011;69850;50.942;13.748;2023-06-14T12:42:18;4.85;;;4.35;;
9834;SDS011;69850;50.942;13.748;2023-06-14T12:45:39;7.65;;;4.63;;
9834;SDS011;69850;50.942;13.748;2023-06-14T12:48:59;6.75;;;4.47;;
9834;SDS011;69850;50.942;13.748;2023-06-14T12:52:20;6.18;;;4.13;;
9834;SDS011;69850;50.942;13.748;2023-06-14T12:55:40;4.63;;;4.10;;
9834;SDS011;69850;50.942;13.748;2023-06-14T12:59:01;5.05;;;4.20;;
9834;SDS011;69850;50.942;13.748;2023-06-14T13:02:22;4.22;;;3.83;;
9834;SDS011;69850;50.942;13.748;2023-06-14T13:05:44;6.72;;;4.68;;
9834;SDS011;69850;50.942;13.748;2023-06-14T13:09:05;5.95;;;4.32;;
9834;SDS011;69850;50.942;13.748;2023-06-14T13:12:26;5.10;;;4.30;;
9834;SDS011;69850;50.942;13.748;2023-06-14T13:15:46;4.82;;;4.43;;
9834;SDS011;69850;50.942;13.748;2023-06-14T13:19:08;4.20;;;3.80;;
9834;SDS011;69850;50.942;13.748;2023-06-14T13:22:29;6.03;;;3.90;;
9834;SDS011;69850;50.942;13.748;2023-06-14T13:25:49;5.65;;;3.65;;
9834;SDS011;69850;50.942;13.748;2023-06-14T13:29:11;5.35;;;3.63;;
9834;SDS011;69850;50.942;13.748;2023-06-14T13:32:32;4.72;;;3.75;;
9834;SDS011;69850;50.942;13.748;2023-06-14T13:35:52;4.50;;;3.90;;
9834;SDS011;69850;50.942;13.748;2023-06-14T13:39:13;5.00;;;3.80;;
9834;SDS011;69850;50.942;13.748;2023-06-14T13:42:34;4.13;;;3.30;;
9834;SDS011;69850;50.942;13.748;2023-06-14T13:45:55;6.57;;;4.38;;
9834;SDS011;69850;50.942;13.748;2023-06-14T13:49:16;5.82;;;4.05;;
9834;SDS011;69850;50.942;13.748;2023-06-14T13:52:37;4.68;;;4.20;;
9834;SDS011;69850;50.942;13.748;2023-06-14T13:55:57;3.63;;;3.05;;
9834;SDS011;69850;50.942;13.748;2023-06-14T13:59:18;5.78;;;3.58;;
9834;SDS011;69850;50.942;13.748;2023-06-14T14:02:39;4.80;;;4.32;;
9834;SDS011;69850;50.942;13.748;2023-06-14T14:06:03;5.93;;;4.85;;
9834;SDS011;69850;50.942;13.748;2023-06-14T14:09:25;7.15;;;4.90;;
9834;SDS011;69850;50.942;13.748;2023-06-14T14:12:45;4.88;;;4.25;;
9834;SDS011;69850;50.942;13.748;2023-06-14T14:16:06;5.35;;;4.80;;
9834;SDS011;69850;50.942;13.748;2023-06-14T14:19:27;6.13;;;4.68;;
9834;SDS011;69850;50.942;13.748;2023-06-14T14:22:47;5.63;;;4.47;;
9834;SDS011;69850;50.942;13.748;2023-06-14T14:26:08;6.38;;;4.30;;
9834;SDS011;69850;50.942;13.748;2023-06-14T14:29:28;4.70;;;4.20;;
9834;SDS011;69850;50.942;13.748;2023-06-14T14:32:49;7.53;;;3.92;;
9834;SDS011;69850;50.942;13.748;2023-06-14T14:36:13;6.50;;;4.15;;
9834;SDS011;69850;50.942;13.748;2023-06-14T14:39:34;4.50;;;3.78;;
9834;SDS011;69850;50.942;13.748;2023-06-14T14:42:55;5.40;;;3.70;;
9834;SDS011;69850;50.942;13.748;2023-06-14T14:46:15;5.10;;;3.45;;
9834;SDS011;69850;50.942;13.748;2023-06-14T14:49:36;4.60;;;3.30;;
9834;SDS011;69850;50.942;13.748;2023-06-14T14:52:57;5.22;;;3.50;;
9834;SDS011;69850;50.942;13.748;2023-06-14T14:56:18;4.22;;;3.10;;
9834;SDS011;69850;50.942;13.748;2023-06-14T14:59:38;7.32;;;3.63;;
9834;SDS011;69850;50.942;13.748;2023-06-14T15:02:59;6.45;;;3.58;;
9834;SDS011;69850;50.942;13.748;2023-06-14T15:06:19;5.15;;;3.65;;
9834;SDS011;69850;50.942;13.748;2023-06-14T15:09:40;4.25;;;3.65;;
9834;SDS011;69850;50.942;13.748;2023-06-14T15:13:01;6.60;;;4.00;;
9834;SDS011;69850;50.942;13.748;2023-06-14T15:16:22;6.07;;;3.70;;
9834;SDS011;69850;50.942;13.748;2023-06-14T15:19:42;4.07;;;3.67;;
9834;SDS011;69850;50.942;13.748;2023-06-14T15:23:03;4.13;;;3.47;;
9834;SDS011;69850;50.942;13.748;2023-06-14T15:26:24;3.70;;;3.08;;
9834;SDS011;69850;50.942;13.748;2023-06-14T15:29:44;4.15;;;3.47;;
9834;SDS011;69850;50.942;13.748;2023-06-14T15:33:05;4.57;;;3.72;;
9834;SDS011;69850;50.942;13.748;2023-06-14T15:36:26;5.40;;;3.42;;
9834;SDS011;69850;50.942;13.748;2023-06-14T15:39:46;4.03;;;3.33;;
9834;SDS011;69850;50.942;13.748;2023-06-14T15:43:07;5.55;;;3.40;;
9834;SDS011;69850;50.942;13.748;2023-06-14T15:46:27;3.40;;;3.10;;
9834;SDS011;69850;50.942;13.748;2023-06-14T15:49:48;5.40;;;3.28;;
9834;SDS011;69850;50.942;13.748;2023-06-14T15:53:09;3.70;;;3.28;;
9834;SDS011;69850;50.942;13.748;2023-06-14T15:56:30;4.32;;;3.15;;
9834;SDS011;69850;50.942;13.748;2023-06-14T15:59:50;4.90;;;4.13;;
9834;SDS011;69850;50.942;13.748;2023-06-14T16:03:11;5.63;;;4.22;;
9834;SDS011;69850;50.942;13.748;2023-06-14T16:06:32;4.78;;;4.10;;
9834;SDS011;69850;50.942;13.748;2023-06-14T16:09:53;4.25;;;3.85;;
9834;SDS011;69850;50.942;13.748;2023-06-14T16:13:13;4.93;;;4.32;;
9834;SDS011;69850;50.942;13.748;2023-06-14T16:16:34;5.00;;;3.90;;
9834;SDS011;69850;50.942;13.748;2023-06-14T16:19:55;5.57;;;4.32;;
9834;SDS011;69850;50.942;13.748;2023-06-14T16:23:15;9.18;;;4.10;;
9834;SDS011;69850;50.942;13.748;2023-06-14T16:26:36;6.28;;;4.38;;
9834;SDS011;69850;50.942;13.748;2023-06-14T16:29:58;4.65;;;3.78;;
9834;SDS011;69850;50.942;13.748;2023-06-14T16:33:18;5.78;;;4.10;;
9834;SDS011;69850;50.942;13.748;2023-06-14T16:36:39;7.95;;;4.00;;
9834;SDS011;69850;50.942;13.748;2023-06-14T16:39:59;7.47;;;4.00;;
9834;SDS011;69850;50.942;13.748;2023-06-14T16:43:20;5.00;;;3.95;;
9834;SDS011;69850;50.942;13.748;2023-06-14T16:46:41;4.88;;;4.20;;
9834;SDS011;69850;50.942;13.748;2023-06-14T16:50:01;6.28;;;4.13;;
9834;SDS011;69850;50.942;13.748;2023-06-14T16:53:23;21.10;;;6.93;;
9834;SDS011;69850;50.942;13.748;2023-06-14T16:56:43;5.75;;;5.00;;
9834;SDS011;69850;50.942;13.748;2023-06-14T17:00:04;7.35;;;4.97;;
9834;SDS011;69850;50.942;13.748;2023-06-14T17:03:26;5.82;;;5.15;;
9834;SDS011;69850;50.942;13.748;2023-06-14T17:06:47;7.18;;;5.50;;
9834;SDS011;69850;50.942;13.748;2023-06-14T17:10:08;5.88;;;5.15;;
9834;SDS011;69850;50.942;13.748;2023-06-14T17:13:29;8.27;;;5.40;;
9834;SDS011;69850;50.942;13.748;2023-06-14T17:16:49;5.97;;;5.38;;
9834;SDS011;69850;50.942;13.748;2023-06-14T17:20:10;6.80;;;5.18;;
9834;SDS011;69850;50.942;13.748;2023-06-14T17:23:31;8.90;;;6.15;;
9834;SDS011;69850;50.942;13.748;2023-06-14T17:26:51;5.93;;;5.32;;
9834;SDS011;69850;50.942;13.748;2023-06-14T17:30:12;5.65;;;5.07;;
9834;SDS011;69850;50.942;13.748;2023-06-14T17:33:33;5.85;;;5.00;;
9834;SDS011;69850;50.942;13.748;2023-06-14T17:36:54;6.78;;;4.90;;
9834;SDS011;69850;50.942;13.748;2023-06-14T17:40:14;6.20;;;5.35;;
9834;SDS011;69850;50.942;13.748;2023-06-14T17:43:36;6.85;;;5.82;;
9834;SDS011;69850;50.942;13.748;2023-06-14T17:46:57;9.93;;;5.55;;
9834;SDS011;69850;50.942;13.748;2023-06-14T17:50:17;6.20;;;5.60;;
9834;SDS011;69850;50.942;13.748;2023-06-14T17:53:38;6.47;;;5.88;;
9834;SDS011;69850;50.942;13.748;2023-06-14T17:56:58;8.32;;;5.72;;
9834;SDS011;69850;50.942;13.748;2023-06-14T18:00:19;6.47;;;5.47;;
9834;SDS011;69850;50.942;13.748;2023-06-14T18:03:40;6.85;;;5.45;;
9834;SDS011;69850;50.942;13.748;2023-06-14T18:07:00;6.05;;;5.32;;
9834;SDS011;69850;50.942;13.748;2023-06-14T18:10:21;6.22;;;5.60;;
9834;SDS011;69850;50.942;13.748;2023-06-14T18:13:42;7.20;;;5.65;;
9834;SDS011;69850;50.942;13.748;2023-06-14T18:17:03;6.10;;;5.53;;
9834;SDS011;69850;50.942;13.748;2023-06-14T18:20:24;6.32;;;5.72;;
9834;SDS011;69850;50.942;13.748;2023-06-14T18:23:44;8.00;;;5.55;;
9834;SDS011;69850;50.942;13.748;2023-06-14T18:27:06;7.18;;;5.53;;
9834;SDS011;69850;50.942;13.748;2023-06-14T18:30:29;8.60;;;6.03;;
9834;SDS011;69850;50.942;13.748;2023-06-14T18:33:49;6.80;;;5.88;;
9834;SDS011;69850;50.942;13.748;2023-06-14T18:37:10;6.63;;;5.95;;
9834;SDS011;69850;50.942;13.748;2023-06-14T18:40:30;6.82;;;6.20;;
9834;SDS011;69850;50.942;13.748;2023-06-14T18:43:51;8.07;;;6.07;;
9834;SDS011;69850;50.942;13.748;2023-06-14T18:47:12;7.68;;;6.90;;
9834;SDS011;69850;50.942;13.748;2023-06-14T18:50:33;7.68;;;6.68;;
9834;SDS011;69850;50.942;13.748;2023-06-14T18:53:54;7.43;;;6.60;;
9834;SDS011;69850;50.942;13.748;2023-06-14T18:57:15;7.70;;;6.90;;
9834;SDS011;69850;50.942;13.748;2023-06-14T19:00:36;9.82;;;7.50;;
9834;SDS011;69850;50.942;13.748;2023-06-14T19:03:56;7.57;;;6.78;;
9834;SDS011;69850;50.942;13.748;2023-06-14T19:07:17;9.07;;;7.13;;
9834;SDS011;69850;50.942;13.748;2023-06-14T19:10:38;7.75;;;6.53;;
9834;SDS011;69850;50.942;13.748;2023-06-14T19:13:59;8.43;;;6.35;;
9834;SDS011;69850;50.942;13.748;2023-06-14T19:17:19;11.65;;;6.65;;
9834;SDS011;69850;50.942;13.748;2023-06-14T19:20:41;10.88;;;7.30;;
9834;SDS011;69850;50.942;13.748;2023-06-14T19:24:01;12.48;;;9.50;;
9834;SDS011;69850;50.942;13.748;2023-06-14T19:27:22;8.68;;;7.32;;
9834;SDS011;69850;50.942;13.748;2023-06-14T19:30:42;8.23;;;6.88;;
9834;SDS011;69850;50.942;13.748;2023-06-14T19:34:03;9.07;;;6.97;;
9834;SDS011;69850;50.942;13.748;2023-06-14T19:37:24;9.32;;;7.30;;
9834;SDS011;69850;50.942;13.748;2023-06-14T19:40:45;8.98;;;7.47;;
9834;SDS011;69850;50.942;13.748;2023-06-14T19:44:05;9.23;;;7.25;;
9834;SDS011;69850;50.942;13.748;2023-06-14T19:47:26;8.68;;;6.90;;
9834;SDS011;69850;50.942;13.748;2023-06-14T19:50:46;10.73;;;7.40;;
9834;SDS011;69850;50.942;13.748;2023-06-14T19:54:07;9.18;;;7.78;;
9834;SDS011;69850;50.942;13.748;2023-06-14T19:57:28;8.57;;;6.93;;
9834;SDS011;69850;50.942;13.748;2023-06-14T20:00:48;9.45;;;7.07;;
9834;SDS011;69850;50.942;13.748;2023-06-14T20:04:09;9.80;;;6.90;;
9834;SDS011;69850;50.942;13.748;2023-06-14T20:07:30;10.13;;;7.32;;
9834;SDS011;69850;50.942;13.748;2023-06-14T20:10:51;8.43;;;7.25;;
9834;SDS011;69850;50.942;13.748;2023-06-14T20:14:12;8.88;;;6.97;;
9834;SDS011;69850;50.942;13.748;2023-06-14T20:17:33;10.63;;;7.50;;
9834;SDS011;69850;50.942;13.748;2023-06-14T20:20:54;9.00;;;6.88;;